sensor_id;sensor_type;location;lat;lon;timestamp;temperature;humidity
53045;DHT22;38930;52.766;6.884;2022-09-09T00:03:53;14.10;99.90
53045;DHT22;38930;52.766;6.884;2022-09-09T00:06:43;14.10;99.90
53045;DHT22;38930;52.766;6.884;2022-09-09T00:09:16;14.00;99.90
53045;DHT22;38930;52.766;6.884;2022-09-09T00:14:32;13.90;99.90
53045;DHT22;38930;52.766;6.884;2022-09-09T00:17:54;13.90;99.90
53045;DHT22;38930;52.766;6.884;2022-09-09T00:20:11;13.90;99.90
53045;DHT22;38930;52.766;6.884;2022-09-09T00:22:40;13.90;99.90
53045;DHT22;38930;52.766;6.884;2022-09-09T00:25:12;13.90;99.90
53045;DHT22;38930;52.766;6.884;2022-09-09T00:27:46;13.80;99.90
53045;DHT22;38930;52.766;6.884;2022-09-09T00:30:22;13.90;99.90
53045;DHT22;38930;52.766;6.884;2022-09-09T00:32:51;13.90;99.90
53045;DHT22;38930;52.766;6.884;2022-09-09T00:35:35;13.80;99.90
53045;DHT22;38930;52.766;6.884;2022-09-09T00:38:16;13.80;99.90
53045;DHT22;38930;52.766;6.884;2022-09-09T00:40:53;13.80;99.90
53045;DHT22;38930;52.766;6.884;2022-09-09T00:43:29;13.80;99.90
53045;DHT22;38930;52.766;6.884;2022-09-09T00:46:14;13.80;99.90
53045;DHT22;38930;52.766;6.884;2022-09-09T00:49:09;13.80;99.90
53045;DHT22;38930;52.766;6.884;2022-09-09T00:54:44;13.80;99.90
53045;DHT22;38930;52.766;6.884;2022-09-09T01:00:25;13.80;99.90
53045;DHT22;38930;52.766;6.884;2022-09-09T01:03:08;13.80;99.90
53045;DHT22;38930;52.766;6.884;2022-09-09T01:05:44;13.90;99.90
53045;DHT22;38930;52.766;6.884;2022-09-09T01:10:58;13.90;99.90
53045;DHT22;38930;52.766;6.884;2022-09-09T01:13:30;14.00;99.90
53045;DHT22;38930;52.766;6.884;2022-09-09T01:16:00;14.00;99.90
53045;DHT22;38930;52.766;6.884;2022-09-09T01:18:30;14.00;99.90
53045;DHT22;38930;52.766;6.884;2022-09-09T01:26:49;14.20;99.90
53045;DHT22;38930;52.766;6.884;2022-09-09T01:29:17;14.20;99.90
53045;DHT22;38930;52.766;6.884;2022-09-09T01:34:18;14.30;99.90
53045;DHT22;38930;52.766;6.884;2022-09-09T01:39:18;14.30;99.90
53045;DHT22;38930;52.766;6.884;2022-09-09T01:41:44;14.30;99.90
53045;DHT22;38930;52.766;6.884;2022-09-09T01:44:10;14.40;99.90
53045;DHT22;38930;52.766;6.884;2022-09-09T01:46:36;14.40;99.90
53045;DHT22;38930;52.766;6.884;2022-09-09T01:49:03;14.40;99.90
53045;DHT22;38930;52.766;6.884;2022-09-09T01:51:30;14.40;99.90
53045;DHT22;38930;52.766;6.884;2022-09-09T01:53:56;14.40;99.90
53045;DHT22;38930;52.766;6.884;2022-09-09T02:02:04;14.40;99.90
53045;DHT22;38930;52.766;6.884;2022-09-09T02:04:41;14.40;99.90
53045;DHT22;38930;52.766;6.884;2022-09-09T02:10:15;14.40;99.90
53045;DHT22;38930;52.766;6.884;2022-09-09T02:12:45;14.40;99.90
53045;DHT22;38930;52.766;6.884;2022-09-09T02:15:34;14.40;99.90
53045;DHT22;38930;52.766;6.884;2022-09-09T02:18:04;14.30;99.90
53045;DHT22;38930;52.766;6.884;2022-09-09T02:20:34;14.30;99.90
53045;DHT22;38930;52.766;6.884;2022-09-09T02:23:02;14.30;99.90
53045;DHT22;38930;52.766;6.884;2022-09-09T02:25:29;14.30;99.90
53045;DHT22;38930;52.766;6.884;2022-09-09T02:27:56;14.30;99.90
53045;DHT22;38930;52.766;6.884;2022-09-09T02:30:24;14.20;99.90
53045;DHT22;38930;52.766;6.884;2022-09-09T02:32:52;14.30;99.90
53045;DHT22;38930;52.766;6.884;2022-09-09T02:35:23;14.20;99.90
53045;DHT22;38930;52.766;6.884;2022-09-09T02:37:53;14.30;99.90
53045;DHT22;38930;52.766;6.884;2022-09-09T02:40:20;14.30;99.90
53045;DHT22;38930;52.766;6.884;2022-09-09T02:42:48;14.30;99.90
53045;DHT22;38930;52.766;6.884;2022-09-09T02:45:18;14.30;99.90
53045;DHT22;38930;52.766;6.884;2022-09-09T02:47:55;14.30;99.90
53045;DHT22;38930;52.766;6.884;2022-09-09T02:50:35;14.30;99.90
53045;DHT22;38930;52.766;6.884;2022-09-09T02:53:19;14.30;99.90
53045;DHT22;38930;52.766;6.884;2022-09-09T02:55:52;14.40;99.90
53045;DHT22;38930;52.766;6.884;2022-09-09T02:58:20;14.30;99.90
53045;DHT22;38930;52.766;6.884;2022-09-09T03:00:48;14.40;99.90
53045;DHT22;38930;52.766;6.884;2022-09-09T03:03:15;14.40;99.90
53045;DHT22;38930;52.766;6.884;2022-09-09T03:05:42;14.40;99.90
53045;DHT22;38930;52.766;6.884;2022-09-09T03:08:08;14.40;99.90
53045;DHT22;38930;52.766;6.884;2022-09-09T03:10:34;14.40;99.90
53045;DHT22;38930;52.766;6.884;2022-09-09T03:13:00;14.40;99.90
53045;DHT22;38930;52.766;6.884;2022-09-09T03:15:26;14.40;99.90
53045;DHT22;38930;52.766;6.884;2022-09-09T03:17:55;14.40;99.90
53045;DHT22;38930;52.766;6.884;2022-09-09T03:20:23;14.40;99.90
53045;DHT22;38930;52.766;6.884;2022-09-09T03:22:49;14.40;99.90
53045;DHT22;38930;52.766;6.884;2022-09-09T03:25:15;14.40;99.90
53045;DHT22;38930;52.766;6.884;2022-09-09T03:27:40;14.40;99.90
53045;DHT22;38930;52.766;6.884;2022-09-09T03:30:06;14.30;99.90
53045;DHT22;38930;52.766;6.884;2022-09-09T03:32:32;14.30;99.90
53045;DHT22;38930;52.766;6.884;2022-09-09T03:34:58;14.30;99.90
53045;DHT22;38930;52.766;6.884;2022-09-09T03:37:23;14.30;99.90
53045;DHT22;38930;52.766;6.884;2022-09-09T03:39:49;14.30;99.90
53045;DHT22;38930;52.766;6.884;2022-09-09T03:42:15;14.40;99.90
53045;DHT22;38930;52.766;6.884;2022-09-09T03:44:44;14.30;99.90
53045;DHT22;38930;52.766;6.884;2022-09-09T03:47:12;14.30;99.90
53045;DHT22;38930;52.766;6.884;2022-09-09T03:49:38;14.30;99.90
53045;DHT22;38930;52.766;6.884;2022-09-09T03:52:04;14.20;99.90
53045;DHT22;38930;52.766;6.884;2022-09-09T03:54:29;14.20;99.90
53045;DHT22;38930;52.766;6.884;2022-09-09T03:56:55;14.20;99.90
53045;DHT22;38930;52.766;6.884;2022-09-09T03:59:20;14.20;99.90
53045;DHT22;38930;52.766;6.884;2022-09-09T04:01:46;14.20;99.90
53045;DHT22;38930;52.766;6.884;2022-09-09T04:04:12;14.20;99.90
53045;DHT22;38930;52.766;6.884;2022-09-09T04:06:38;14.20;99.90
53045;DHT22;38930;52.766;6.884;2022-09-09T04:09:03;14.20;99.90
53045;DHT22;38930;52.766;6.884;2022-09-09T04:11:29;14.40;99.90
53045;DHT22;38930;52.766;6.884;2022-09-09T04:13:54;14.20;99.90
53045;DHT22;38930;52.766;6.884;2022-09-09T04:16:20;14.30;99.90
53045;DHT22;38930;52.766;6.884;2022-09-09T04:18:46;14.30;99.90
53045;DHT22;38930;52.766;6.884;2022-09-09T04:21:12;14.20;99.90
53045;DHT22;38930;52.766;6.884;2022-09-09T04:23:38;14.30;99.90
53045;DHT22;38930;52.766;6.884;2022-09-09T04:26:04;14.30;99.90
53045;DHT22;38930;52.766;6.884;2022-09-09T04:28:33;14.20;99.90
53045;DHT22;38930;52.766;6.884;2022-09-09T04:31:13;14.20;99.90
53045;DHT22;38930;52.766;6.884;2022-09-09T04:33:40;14.30;99.90
53045;DHT22;38930;52.766;6.884;2022-09-09T04:36:06;14.20;99.90
53045;DHT22;38930;52.766;6.884;2022-09-09T04:38:31;14.20;99.90
53045;DHT22;38930;52.766;6.884;2022-09-09T04:40:57;14.20;99.90
53045;DHT22;38930;52.766;6.884;2022-09-09T04:43:23;14.30;99.90
53045;DHT22;38930;52.766;6.884;2022-09-09T04:45:51;14.30;99.90
53045;DHT22;38930;52.766;6.884;2022-09-09T04:48:18;14.20;99.90
53045;DHT22;38930;52.766;6.884;2022-09-09T04:50:43;14.20;99.90
53045;DHT22;38930;52.766;6.884;2022-09-09T04:53:09;14.20;99.90
53045;DHT22;38930;52.766;6.884;2022-09-09T04:55:35;14.40;99.90
53045;DHT22;38930;52.766;6.884;2022-09-09T04:58:04;14.20;99.90
53045;DHT22;38930;52.766;6.884;2022-09-09T05:00:30;14.20;99.90
53045;DHT22;38930;52.766;6.884;2022-09-09T05:02:56;14.20;99.90
53045;DHT22;38930;52.766;6.884;2022-09-09T05:05:22;14.20;99.90
53045;DHT22;38930;52.766;6.884;2022-09-09T05:07:47;14.20;99.90
53045;DHT22;38930;52.766;6.884;2022-09-09T05:10:13;14.40;99.90
53045;DHT22;38930;52.766;6.884;2022-09-09T05:12:40;14.20;99.90
53045;DHT22;38930;52.766;6.884;2022-09-09T05:15:06;14.20;99.90
53045;DHT22;38930;52.766;6.884;2022-09-09T05:17:32;14.20;99.90
53045;DHT22;38930;52.766;6.884;2022-09-09T05:19:59;14.20;99.90
53045;DHT22;38930;52.766;6.884;2022-09-09T05:22:24;14.30;99.90
53045;DHT22;38930;52.766;6.884;2022-09-09T05:24:50;14.30;99.90
53045;DHT22;38930;52.766;6.884;2022-09-09T05:27:17;14.30;99.90
53045;DHT22;38930;52.766;6.884;2022-09-09T05:29:45;14.20;99.90
53045;DHT22;38930;52.766;6.884;2022-09-09T05:32:11;14.20;99.90
53045;DHT22;38930;52.766;6.884;2022-09-09T05:34:37;14.20;99.90
53045;DHT22;38930;52.766;6.884;2022-09-09T05:37:05;14.20;99.90
53045;DHT22;38930;52.766;6.884;2022-09-09T05:39:33;14.20;99.90
53045;DHT22;38930;52.766;6.884;2022-09-09T05:41:59;14.20;99.90
53045;DHT22;38930;52.766;6.884;2022-09-09T05:44:24;14.20;99.90
53045;DHT22;38930;52.766;6.884;2022-09-09T05:46:53;14.20;99.90
53045;DHT22;38930;52.766;6.884;2022-09-09T05:49:19;14.30;99.90
53045;DHT22;38930;52.766;6.884;2022-09-09T05:51:45;14.20;99.90
53045;DHT22;38930;52.766;6.884;2022-09-09T05:54:11;14.20;99.90
53045;DHT22;38930;52.766;6.884;2022-09-09T05:56:40;14.20;99.90
53045;DHT22;38930;52.766;6.884;2022-09-09T05:59:06;14.20;99.90
53045;DHT22;38930;52.766;6.884;2022-09-09T06:01:34;14.20;99.90
53045;DHT22;38930;52.766;6.884;2022-09-09T06:04:01;14.30;99.90
53045;DHT22;38930;52.766;6.884;2022-09-09T06:06:31;14.30;99.90
53045;DHT22;38930;52.766;6.884;2022-09-09T06:09:05;14.30;99.90
53045;DHT22;38930;52.766;6.884;2022-09-09T06:11:33;14.30;99.90
53045;DHT22;38930;52.766;6.884;2022-09-09T06:13:59;14.40;99.90
53045;DHT22;38930;52.766;6.884;2022-09-09T06:16:27;14.40;99.90
53045;DHT22;38930;52.766;6.884;2022-09-09T06:18:54;14.70;99.90
53045;DHT22;38930;52.766;6.884;2022-09-09T06:21:22;14.40;99.90
53045;DHT22;38930;52.766;6.884;2022-09-09T06:23:49;14.40;99.90
53045;DHT22;38930;52.766;6.884;2022-09-09T06:26:18;14.50;99.90
53045;DHT22;38930;52.766;6.884;2022-09-09T06:28:45;14.50;99.90
53045;DHT22;38930;52.766;6.884;2022-09-09T06:31:11;14.60;99.90
53045;DHT22;38930;52.766;6.884;2022-09-09T06:33:39;14.60;99.90
53045;DHT22;38930;52.766;6.884;2022-09-09T06:36:17;14.90;99.90
53045;DHT22;38930;52.766;6.884;2022-09-09T06:38:43;14.60;99.90
53045;DHT22;38930;52.766;6.884;2022-09-09T06:41:11;14.60;99.90
53045;DHT22;38930;52.766;6.884;2022-09-09T06:43:37;14.70;99.90
53045;DHT22;38930;52.766;6.884;2022-09-09T06:46:08;14.70;99.90
53045;DHT22;38930;52.766;6.884;2022-09-09T06:48:35;14.70;99.90
53045;DHT22;38930;52.766;6.884;2022-09-09T06:53:32;14.70;99.90
53045;DHT22;38930;52.766;6.884;2022-09-09T06:56:00;14.80;99.90
53045;DHT22;38930;52.766;6.884;2022-09-09T06:58:27;14.80;99.90
53045;DHT22;38930;52.766;6.884;2022-09-09T07:01:04;14.90;99.90
53045;DHT22;38930;52.766;6.884;2022-09-09T07:03:31;14.80;99.90
53045;DHT22;38930;52.766;6.884;2022-09-09T07:05:57;15.10;99.90
53045;DHT22;38930;52.766;6.884;2022-09-09T07:08:23;14.90;99.90
53045;DHT22;38930;52.766;6.884;2022-09-09T07:10:50;14.90;99.90
53045;DHT22;38930;52.766;6.884;2022-09-09T07:13:23;15.00;99.90
53045;DHT22;38930;52.766;6.884;2022-09-09T07:15:50;15.20;99.90
53045;DHT22;38930;52.766;6.884;2022-09-09T07:18:16;15.40;99.90
53045;DHT22;38930;52.766;6.884;2022-09-09T07:20:41;15.40;99.90
53045;DHT22;38930;52.766;6.884;2022-09-09T07:23:07;15.40;99.90
53045;DHT22;38930;52.766;6.884;2022-09-09T07:25:33;15.50;99.90
53045;DHT22;38930;52.766;6.884;2022-09-09T07:27:58;15.50;99.90
53045;DHT22;38930;52.766;6.884;2022-09-09T07:30:24;15.60;99.90
53045;DHT22;38930;52.766;6.884;2022-09-09T07:32:51;15.60;99.90
53045;DHT22;38930;52.766;6.884;2022-09-09T07:35:17;15.70;99.90
53045;DHT22;38930;52.766;6.884;2022-09-09T07:37:43;15.70;99.90
53045;DHT22;38930;52.766;6.884;2022-09-09T07:40:09;15.80;99.90
53045;DHT22;38930;52.766;6.884;2022-09-09T07:42:35;16.10;99.90
53045;DHT22;38930;52.766;6.884;2022-09-09T07:45:03;15.90;99.90
53045;DHT22;38930;52.766;6.884;2022-09-09T07:47:29;16.10;99.90
53045;DHT22;38930;52.766;6.884;2022-09-09T07:49:54;16.20;99.90
53045;DHT22;38930;52.766;6.884;2022-09-09T07:52:21;16.30;99.90
53045;DHT22;38930;52.766;6.884;2022-09-09T07:54:46;16.40;99.90
53045;DHT22;38930;52.766;6.884;2022-09-09T07:57:12;16.50;99.90
53045;DHT22;38930;52.766;6.884;2022-09-09T07:59:38;16.70;99.90
53045;DHT22;38930;52.766;6.884;2022-09-09T08:02:03;16.80;99.90
53045;DHT22;38930;52.766;6.884;2022-09-09T08:04:29;16.90;99.90
53045;DHT22;38930;52.766;6.884;2022-09-09T08:06:59;17.20;99.90
53045;DHT22;38930;52.766;6.884;2022-09-09T08:09:26;17.10;99.90
53045;DHT22;38930;52.766;6.884;2022-09-09T08:11:55;17.20;99.90
53045;DHT22;38930;52.766;6.884;2022-09-09T08:14:22;17.30;99.90
53045;DHT22;38930;52.766;6.884;2022-09-09T08:16:49;17.30;99.90
53045;DHT22;38930;52.766;6.884;2022-09-09T08:19:15;17.40;99.90
53045;DHT22;38930;52.766;6.884;2022-09-09T08:21:42;17.40;99.90
53045;DHT22;38930;52.766;6.884;2022-09-09T08:24:08;17.50;99.90
53045;DHT22;38930;52.766;6.884;2022-09-09T08:26:41;17.60;99.90
53045;DHT22;38930;52.766;6.884;2022-09-09T08:29:09;17.60;99.90
53045;DHT22;38930;52.766;6.884;2022-09-09T08:31:37;17.70;99.90
53045;DHT22;38930;52.766;6.884;2022-09-09T08:34:05;17.90;99.90
53045;DHT22;38930;52.766;6.884;2022-09-09T08:36:36;17.80;99.90
53045;DHT22;38930;52.766;6.884;2022-09-09T08:39:03;17.80;99.90
53045;DHT22;38930;52.766;6.884;2022-09-09T08:47:12;17.80;99.90
53045;DHT22;38930;52.766;6.884;2022-09-09T08:52:31;17.70;99.90
53045;DHT22;38930;52.766;6.884;2022-09-09T08:55:26;17.70;99.90
53045;DHT22;38930;52.766;6.884;2022-09-09T08:57:56;17.70;99.90
53045;DHT22;38930;52.766;6.884;2022-09-09T09:00:22;17.80;99.90
53045;DHT22;38930;52.766;6.884;2022-09-09T09:03:09;17.90;99.90
53045;DHT22;38930;52.766;6.884;2022-09-09T09:08:50;18.10;99.90
53045;DHT22;38930;52.766;6.884;2022-09-09T09:11:18;18.20;99.90
53045;DHT22;38930;52.766;6.884;2022-09-09T09:14:03;18.30;99.90
53045;DHT22;38930;52.766;6.884;2022-09-09T09:16:41;18.30;99.90
53045;DHT22;38930;52.766;6.884;2022-09-09T09:19:13;18.20;99.90
53045;DHT22;38930;52.766;6.884;2022-09-09T09:21:43;18.30;99.90
53045;DHT22;38930;52.766;6.884;2022-09-09T09:24:23;18.40;99.90
53045;DHT22;38930;52.766;6.884;2022-09-09T09:26:51;18.50;99.90
53045;DHT22;38930;52.766;6.884;2022-09-09T09:29:19;18.60;99.90
53045;DHT22;38930;52.766;6.884;2022-09-09T09:31:51;18.70;99.90
53045;DHT22;38930;52.766;6.884;2022-09-09T09:34:17;18.70;99.90
53045;DHT22;38930;52.766;6.884;2022-09-09T09:39:29;18.60;99.90
53045;DHT22;38930;52.766;6.884;2022-09-09T09:41:55;18.60;99.90
53045;DHT22;38930;52.766;6.884;2022-09-09T09:44:25;18.80;99.90
53045;DHT22;38930;52.766;6.884;2022-09-09T09:46:52;18.90;99.90
53045;DHT22;38930;52.766;6.884;2022-09-09T09:49:18;19.20;99.90
53045;DHT22;38930;52.766;6.884;2022-09-09T09:51:44;19.20;99.90
53045;DHT22;38930;52.766;6.884;2022-09-09T09:56:38;19.50;99.90
53045;DHT22;38930;52.766;6.884;2022-09-09T09:59:05;19.60;99.90
53045;DHT22;38930;52.766;6.884;2022-09-09T10:01:32;19.60;99.90
53045;DHT22;38930;52.766;6.884;2022-09-09T10:04:02;19.60;99.90
53045;DHT22;38930;52.766;6.884;2022-09-09T10:06:36;19.60;99.90
53045;DHT22;38930;52.766;6.884;2022-09-09T10:09:18;19.60;99.90
53045;DHT22;38930;52.766;6.884;2022-09-09T10:12:08;19.60;99.90
53045;DHT22;38930;52.766;6.884;2022-09-09T10:23:27;19.90;99.90
53045;DHT22;38930;52.766;6.884;2022-09-09T10:36:25;20.00;99.90
53045;DHT22;38930;52.766;6.884;2022-09-09T10:39:10;20.00;99.90
53045;DHT22;38930;52.766;6.884;2022-09-09T10:41:55;20.30;99.90
53045;DHT22;38930;52.766;6.884;2022-09-09T10:45:03;20.40;99.90
53045;DHT22;38930;52.766;6.884;2022-09-09T10:47:50;20.40;99.90
53045;DHT22;38930;52.766;6.884;2022-09-09T10:55:55;20.60;99.90
53045;DHT22;38930;52.766;6.884;2022-09-09T11:00:57;20.50;99.90
53045;DHT22;38930;52.766;6.884;2022-09-09T11:03:28;20.40;99.90
53045;DHT22;38930;52.766;6.884;2022-09-09T11:06:06;20.50;99.90
53045;DHT22;38930;52.766;6.884;2022-09-09T11:08:38;20.40;99.90
53045;DHT22;38930;52.766;6.884;2022-09-09T11:19:04;20.60;99.90
53045;DHT22;38930;52.766;6.884;2022-09-09T11:21:40;20.70;99.90
53045;DHT22;38930;52.766;6.884;2022-09-09T11:24:26;20.70;99.90
53045;DHT22;38930;52.766;6.884;2022-09-09T11:27:03;20.70;99.90
53045;DHT22;38930;52.766;6.884;2022-09-09T11:35:38;21.10;99.90
53045;DHT22;38930;52.766;6.884;2022-09-09T11:40:44;21.30;99.90
53045;DHT22;38930;52.766;6.884;2022-09-09T11:43:19;21.40;99.90
53045;DHT22;38930;52.766;6.884;2022-09-09T11:45:52;21.40;99.90
53045;DHT22;38930;52.766;6.884;2022-09-09T11:51:29;21.20;99.90
53045;DHT22;38930;52.766;6.884;2022-09-09T11:54:24;21.10;99.90
53045;DHT22;38930;52.766;6.884;2022-09-09T11:56:46;21.10;99.90
53045;DHT22;38930;52.766;6.884;2022-09-09T11:59:23;21.30;99.90
53045;DHT22;38930;52.766;6.884;2022-09-09T12:02:14;21.10;99.90
53045;DHT22;38930;52.766;6.884;2022-09-09T12:04:54;21.10;99.90
53045;DHT22;38930;52.766;6.884;2022-09-09T12:07:38;21.10;99.90
53045;DHT22;38930;52.766;6.884;2022-09-09T12:10:25;21.20;99.90
53045;DHT22;38930;52.766;6.884;2022-09-09T12:12:51;21.40;99.90
53045;DHT22;38930;52.766;6.884;2022-09-09T12:15:25;21.70;99.90
53045;DHT22;38930;52.766;6.884;2022-09-09T12:17:57;21.80;99.90
53045;DHT22;38930;52.766;6.884;2022-09-09T12:23:13;22.10;99.90
53045;DHT22;38930;52.766;6.884;2022-09-09T12:26:12;21.90;99.90
53045;DHT22;38930;52.766;6.884;2022-09-09T12:31:22;21.50;99.90
53045;DHT22;38930;52.766;6.884;2022-09-09T12:33:50;21.30;99.90
53045;DHT22;38930;52.766;6.884;2022-09-09T12:36:21;21.20;99.90
53045;DHT22;38930;52.766;6.884;2022-09-09T12:38:48;21.10;99.90
53045;DHT22;38930;52.766;6.884;2022-09-09T12:41:27;21.00;99.90
53045;DHT22;38930;52.766;6.884;2022-09-09T12:44:08;21.10;99.90
53045;DHT22;38930;52.766;6.884;2022-09-09T12:46:45;21.00;99.90
53045;DHT22;38930;52.766;6.884;2022-09-09T12:49:37;21.00;99.90
53045;DHT22;38930;52.766;6.884;2022-09-09T12:52:06;21.00;99.90
53045;DHT22;38930;52.766;6.884;2022-09-09T12:54:35;21.10;99.90
53045;DHT22;38930;52.766;6.884;2022-09-09T12:57:02;21.30;99.90
53045;DHT22;38930;52.766;6.884;2022-09-09T12:59:36;21.40;99.90
53045;DHT22;38930;52.766;6.884;2022-09-09T13:02:10;21.40;99.90
53045;DHT22;38930;52.766;6.884;2022-09-09T13:04:37;21.50;99.90
53045;DHT22;38930;52.766;6.884;2022-09-09T13:07:06;21.40;99.90
53045;DHT22;38930;52.766;6.884;2022-09-09T13:09:35;21.50;99.90
53045;DHT22;38930;52.766;6.884;2022-09-09T13:12:01;21.40;99.90
53045;DHT22;38930;52.766;6.884;2022-09-09T13:14:35;21.40;99.90
53045;DHT22;38930;52.766;6.884;2022-09-09T13:17:04;21.10;99.90
53045;DHT22;38930;52.766;6.884;2022-09-09T13:19:36;20.90;99.90
53045;DHT22;38930;52.766;6.884;2022-09-09T13:22:21;20.50;99.90
53045;DHT22;38930;52.766;6.884;2022-09-09T13:24:47;20.10;99.90
53045;DHT22;38930;52.766;6.884;2022-09-09T13:27:34;19.90;99.90
53045;DHT22;38930;52.766;6.884;2022-09-09T13:30:00;19.80;99.90
53045;DHT22;38930;52.766;6.884;2022-09-09T13:32:27;19.80;99.90
53045;DHT22;38930;52.766;6.884;2022-09-09T13:34:58;19.80;99.90
53045;DHT22;38930;52.766;6.884;2022-09-09T13:37:35;19.90;99.90
53045;DHT22;38930;52.766;6.884;2022-09-09T13:40:02;19.90;99.90
53045;DHT22;38930;52.766;6.884;2022-09-09T13:42:28;20.20;99.90
53045;DHT22;38930;52.766;6.884;2022-09-09T13:44:56;20.30;99.90
53045;DHT22;38930;52.766;6.884;2022-09-09T13:47:31;20.30;99.90
53045;DHT22;38930;52.766;6.884;2022-09-09T13:49:57;20.30;99.90
53045;DHT22;38930;52.766;6.884;2022-09-09T13:52:23;20.30;99.90
53045;DHT22;38930;52.766;6.884;2022-09-09T13:54:50;20.30;99.90
53045;DHT22;38930;52.766;6.884;2022-09-09T13:57:19;20.20;99.90
53045;DHT22;38930;52.766;6.884;2022-09-09T13:59:46;20.00;99.90
53045;DHT22;38930;52.766;6.884;2022-09-09T14:02:12;20.10;99.90
53045;DHT22;38930;52.766;6.884;2022-09-09T14:04:38;20.10;99.90
53045;DHT22;38930;52.766;6.884;2022-09-09T14:07:11;20.10;99.90
53045;DHT22;38930;52.766;6.884;2022-09-09T14:09:37;20.10;99.90
53045;DHT22;38930;52.766;6.884;2022-09-09T14:12:03;19.90;99.90
53045;DHT22;38930;52.766;6.884;2022-09-09T14:14:30;19.60;99.90
53045;DHT22;38930;52.766;6.884;2022-09-09T14:16:55;19.30;99.90
53045;DHT22;38930;52.766;6.884;2022-09-09T14:19:21;19.10;99.90
53045;DHT22;38930;52.766;6.884;2022-09-09T14:21:46;18.70;99.90
53045;DHT22;38930;52.766;6.884;2022-09-09T14:24:12;18.40;99.90
53045;DHT22;38930;52.766;6.884;2022-09-09T14:26:38;18.30;99.90
53045;DHT22;38930;52.766;6.884;2022-09-09T14:29:03;18.20;99.90
53045;DHT22;38930;52.766;6.884;2022-09-09T14:31:29;18.00;99.90
53045;DHT22;38930;52.766;6.884;2022-09-09T14:33:55;18.00;99.90
53045;DHT22;38930;52.766;6.884;2022-09-09T14:36:20;17.90;99.90
53045;DHT22;38930;52.766;6.884;2022-09-09T14:38:46;17.90;99.90
53045;DHT22;38930;52.766;6.884;2022-09-09T14:41:15;18.10;99.90
53045;DHT22;38930;52.766;6.884;2022-09-09T14:43:42;18.00;99.90
53045;DHT22;38930;52.766;6.884;2022-09-09T14:46:10;18.10;99.90
53045;DHT22;38930;52.766;6.884;2022-09-09T14:48:36;18.20;99.90
53045;DHT22;38930;52.766;6.884;2022-09-09T14:51:10;18.40;99.90
53045;DHT22;38930;52.766;6.884;2022-09-09T14:53:36;18.60;99.90
53045;DHT22;38930;52.766;6.884;2022-09-09T14:56:12;18.80;99.90
53045;DHT22;38930;52.766;6.884;2022-09-09T14:58:38;18.80;99.90
53045;DHT22;38930;52.766;6.884;2022-09-09T15:01:15;18.70;99.90
53045;DHT22;38930;52.766;6.884;2022-09-09T15:03:47;18.70;99.90
53045;DHT22;38930;52.766;6.884;2022-09-09T15:06:14;18.80;99.90
53045;DHT22;38930;52.766;6.884;2022-09-09T15:08:44;18.80;99.90
53045;DHT22;38930;52.766;6.884;2022-09-09T15:11:12;18.80;99.90
53045;DHT22;38930;52.766;6.884;2022-09-09T15:13:39;18.90;99.90
53045;DHT22;38930;52.766;6.884;2022-09-09T15:18:35;19.00;99.90
53045;DHT22;38930;52.766;6.884;2022-09-09T15:21:02;19.00;99.90
53045;DHT22;38930;52.766;6.884;2022-09-09T15:23:32;19.00;99.90
53045;DHT22;38930;52.766;6.884;2022-09-09T15:25:57;18.90;99.90
53045;DHT22;38930;52.766;6.884;2022-09-09T15:28:23;18.90;99.90
53045;DHT22;38930;52.766;6.884;2022-09-09T15:30:50;18.80;99.90
53045;DHT22;38930;52.766;6.884;2022-09-09T15:33:18;18.70;99.90
53045;DHT22;38930;52.766;6.884;2022-09-09T15:35:44;18.80;99.90
53045;DHT22;38930;52.766;6.884;2022-09-09T15:38:10;18.80;99.90
53045;DHT22;38930;52.766;6.884;2022-09-09T15:40:35;18.80;99.90
53045;DHT22;38930;52.766;6.884;2022-09-09T15:43:01;18.70;99.90
53045;DHT22;38930;52.766;6.884;2022-09-09T15:45:28;18.70;99.90
53045;DHT22;38930;52.766;6.884;2022-09-09T15:47:56;18.70;99.90
53045;DHT22;38930;52.766;6.884;2022-09-09T15:50:22;18.60;99.90
53045;DHT22;38930;52.766;6.884;2022-09-09T15:52:54;18.60;99.90
53045;DHT22;38930;52.766;6.884;2022-09-09T15:55:20;18.40;99.90
53045;DHT22;38930;52.766;6.884;2022-09-09T15:57:46;18.40;99.90
53045;DHT22;38930;52.766;6.884;2022-09-09T16:00:13;18.30;99.90
53045;DHT22;38930;52.766;6.884;2022-09-09T16:02:39;18.30;99.90
53045;DHT22;38930;52.766;6.884;2022-09-09T16:05:05;18.20;99.90
53045;DHT22;38930;52.766;6.884;2022-09-09T16:07:31;18.30;99.90
53045;DHT22;38930;52.766;6.884;2022-09-09T16:09:57;18.40;99.90
53045;DHT22;38930;52.766;6.884;2022-09-09T16:12:22;18.40;99.90
53045;DHT22;38930;52.766;6.884;2022-09-09T16:14:48;18.40;99.90
53045;DHT22;38930;52.766;6.884;2022-09-09T16:17:13;18.40;99.90
53045;DHT22;38930;52.766;6.884;2022-09-09T16:19:40;18.50;99.90
53045;DHT22;38930;52.766;6.884;2022-09-09T16:22:06;18.40;99.90
53045;DHT22;38930;52.766;6.884;2022-09-09T16:24:32;18.50;99.90
53045;DHT22;38930;52.766;6.884;2022-09-09T16:26:58;18.40;99.90
53045;DHT22;38930;52.766;6.884;2022-09-09T16:29:23;18.40;99.90
53045;DHT22;38930;52.766;6.884;2022-09-09T16:31:51;18.30;99.90
53045;DHT22;38930;52.766;6.884;2022-09-09T16:34:17;18.50;99.90
53045;DHT22;38930;52.766;6.884;2022-09-09T16:36:44;18.30;99.90
53045;DHT22;38930;52.766;6.884;2022-09-09T16:39:13;18.30;99.90
53045;DHT22;38930;52.766;6.884;2022-09-09T16:41:39;18.20;99.90
53045;DHT22;38930;52.766;6.884;2022-09-09T16:44:07;18.20;99.90
53045;DHT22;38930;52.766;6.884;2022-09-09T16:46:36;18.20;99.90
53045;DHT22;38930;52.766;6.884;2022-09-09T16:49:06;18.30;99.90
53045;DHT22;38930;52.766;6.884;2022-09-09T16:51:35;18.30;99.90
53045;DHT22;38930;52.766;6.884;2022-09-09T16:54:04;18.20;99.90
53045;DHT22;38930;52.766;6.884;2022-09-09T16:56:32;18.20;99.90
53045;DHT22;38930;52.766;6.884;2022-09-09T16:59:01;18.20;99.90
53045;DHT22;38930;52.766;6.884;2022-09-09T17:01:31;18.20;99.90
53045;DHT22;38930;52.766;6.884;2022-09-09T17:04:00;18.20;99.90
53045;DHT22;38930;52.766;6.884;2022-09-09T17:06:27;18.10;99.90
53045;DHT22;38930;52.766;6.884;2022-09-09T17:08:58;18.10;99.90
53045;DHT22;38930;52.766;6.884;2022-09-09T17:11:26;18.10;99.90
53045;DHT22;38930;52.766;6.884;2022-09-09T17:13:53;18.10;99.90
53045;DHT22;38930;52.766;6.884;2022-09-09T17:16:21;18.00;99.90
53045;DHT22;38930;52.766;6.884;2022-09-09T17:18:48;17.90;99.90
53045;DHT22;38930;52.766;6.884;2022-09-09T17:21:16;18.00;99.90
53045;DHT22;38930;52.766;6.884;2022-09-09T17:23:44;17.90;99.90
53045;DHT22;38930;52.766;6.884;2022-09-09T17:26:12;17.90;99.90
53045;DHT22;38930;52.766;6.884;2022-09-09T17:28:39;17.90;99.90
53045;DHT22;38930;52.766;6.884;2022-09-09T17:31:07;17.90;99.90
53045;DHT22;38930;52.766;6.884;2022-09-09T17:33:34;17.90;99.90